CCA1643 ZBAA-ZYHB
Flight info
| Callsign | CCA1643 |
|---|---|
| Flight time | 2h 5m |
| Altitude | 37100 |
| Route | DOTRA5Y DOTRA B334 TGO G212 RUSBO W203 PIGAM PIG09A |
| Aircraft | B77W/H-SDE1E2E3FGHIJ2J3J4J5M1RWXY/LB1D1 |
Departure
| Time | 2026-04-20 22:52 |
|---|---|
| Airport | Beijing Capital International Airport (ZBAA) |
Arrival
| Time | 2026-04-21 00:58 |
|---|---|
| Airport | Harbin Taiping International Airport (ZYHB) |
| Time | Latitude | Longitude | Altitude | Speed | Heading |
|---|---|---|---|---|---|
| 2026-04-20 22:30 | 40.06485 | 116.60599 | 131 ft | 0 kts | 84° |
| 2026-04-20 22:44 | 40.06485 | 116.60594 | 131 ft | 2 kts | 84° |
| 2026-04-20 22:44 | 40.06484 | 116.60574 | 131 ft | 2 kts | 84° |
| 2026-04-20 22:45 | 40.06482 | 116.60555 | 131 ft | 2 kts | 84° |
| 2026-04-20 22:45 | 40.06480 | 116.60535 | 131 ft | 2 kts | 84° |
| 2026-04-20 22:45 | 40.06479 | 116.60516 | 131 ft | 2 kts | 95° |
| 2026-04-20 22:45 | 40.06483 | 116.60497 | 131 ft | 2 kts | 126° |
| 2026-04-20 22:46 | 40.06494 | 116.60484 | 131 ft | 2 kts | 149° |
| 2026-04-20 22:46 | 40.06506 | 116.60477 | 131 ft | 0 kts | 172° |
| 2026-04-20 22:46 | 40.06511 | 116.60477 | 131 ft | 0 kts | 174° |
| 2026-04-20 22:48 | 40.06510 | 116.60477 | 131 ft | 0 kts | 174° |
| 2026-04-20 22:48 | 40.06478 | 116.60481 | 131 ft | 8 kts | 172° |
| 2026-04-20 22:48 | 40.06405 | 116.60495 | 131 ft | 12 kts | 172° |
| 2026-04-20 22:48 | 40.06306 | 116.60513 | 131 ft | 15 kts | 172° |
| 2026-04-20 22:49 | 40.06204 | 116.60529 | 131 ft | 14 kts | 174° |
| 2026-04-20 22:49 | 40.06107 | 116.60541 | 131 ft | 13 kts | 174° |
| 2026-04-20 22:49 | 40.06015 | 116.60554 | 131 ft | 13 kts | 174° |
| 2026-04-20 22:49 | 40.05926 | 116.60568 | 131 ft | 12 kts | 173° |
| 2026-04-20 22:50 | 40.05836 | 116.60583 | 131 ft | 14 kts | 173° |
| 2026-04-20 22:50 | 40.05760 | 116.60570 | 131 ft | 9 kts | 237° |
| 2026-04-20 22:50 | 40.05746 | 116.60483 | 131 ft | 11 kts | 262° |
| 2026-04-20 22:50 | 40.05735 | 116.60353 | 131 ft | 17 kts | 264° |
| 2026-04-20 22:51 | 40.05718 | 116.60174 | 131 ft | 21 kts | 262° |
| 2026-04-20 22:51 | 40.05706 | 116.60021 | 131 ft | 8 kts | 291° |
| 2026-04-20 22:51 | 40.05754 | 116.59983 | 131 ft | 8 kts | 354° |
| 2026-04-20 22:51 | 40.05894 | 116.59958 | 131 ft | 45 kts | 351° |
| 2026-04-20 22:52 | 40.06459 | 116.59872 | 131 ft | 116 kts | 353° |
| 2026-04-20 22:52 | 40.07466 | 116.59713 | 215 ft | 166 kts | 353° |
| 2026-04-20 22:52 | 40.08620 | 116.59553 | 892 ft | 170 kts | 355° |
| 2026-04-20 22:52 | 40.09797 | 116.59325 | 1534 ft | 176 kts | 349° |
| 2026-04-20 22:53 | 40.11066 | 116.59127 | 1923 ft | 191 kts | 352° |
| 2026-04-20 22:53 | 40.12451 | 116.58928 | 2311 ft | 209 kts | 352° |
| 2026-04-20 22:53 | 40.13936 | 116.58696 | 2767 ft | 226 kts | 351° |
| 2026-04-20 22:53 | 40.15552 | 116.58440 | 3245 ft | 242 kts | 351° |
| 2026-04-20 22:54 | 40.17285 | 116.58167 | 3834 ft | 253 kts | 350° |
| 2026-04-20 22:54 | 40.19006 | 116.57896 | 4646 ft | 254 kts | 350° |
| 2026-04-20 22:54 | 40.20764 | 116.57619 | 5481 ft | 254 kts | 350° |
| 2026-04-20 22:54 | 40.22512 | 116.57343 | 6245 ft | 256 kts | 350° |
| 2026-04-20 22:55 | 40.24282 | 116.57064 | 7019 ft | 257 kts | 349° |
| 2026-04-20 22:55 | 40.26062 | 116.56778 | 7688 ft | 261 kts | 349° |
| 2026-04-20 22:55 | 40.27850 | 116.56474 | 8410 ft | 263 kts | 349° |
| 2026-04-20 22:55 | 40.29674 | 116.56165 | 9038 ft | 263 kts | 349° |
| 2026-04-20 22:56 | 40.31488 | 116.55859 | 9748 ft | 264 kts | 349° |
| 2026-04-20 22:56 | 40.33286 | 116.55555 | 10410 ft | 267 kts | 349° |
| 2026-04-20 22:56 | 40.35204 | 116.55228 | 10754 ft | 286 kts | 349° |
| 2026-04-20 22:56 | 40.37245 | 116.54882 | 11026 ft | 303 kts | 349° |
| 2026-04-20 22:57 | 40.39380 | 116.54520 | 11234 ft | 319 kts | 349° |
| 2026-04-20 22:57 | 40.41652 | 116.54153 | 11527 ft | 337 kts | 352° |
| 2026-04-20 22:57 | 40.44057 | 116.54153 | 11889 ft | 356 kts | 359° |
| 2026-04-20 22:57 | 40.46571 | 116.54342 | 12629 ft | 360 kts | 360° |
| 2026-04-20 22:58 | 40.49054 | 116.54559 | 13523 ft | 363 kts | 2° |
| 2026-04-20 22:58 | 40.51532 | 116.55187 | 14337 ft | 373 kts | 11° |
| 2026-04-20 22:58 | 40.53989 | 116.56418 | 15138 ft | 385 kts | 21° |
| 2026-04-20 22:58 | 40.56310 | 116.58277 | 16040 ft | 397 kts | 31° |
| 2026-04-20 22:59 | 40.58449 | 116.60601 | 16889 ft | 404 kts | 34° |
| 2026-04-20 22:59 | 40.60583 | 116.63030 | 17671 ft | 411 kts | 34° |
| 2026-04-20 22:59 | 40.62769 | 116.65513 | 18399 ft | 418 kts | 34° |
| 2026-04-20 22:59 | 40.64955 | 116.67991 | 19195 ft | 423 kts | 33° |
| 2026-04-20 23:00 | 40.67200 | 116.70534 | 19984 ft | 428 kts | 33° |
| 2026-04-20 23:00 | 40.69468 | 116.73099 | 20718 ft | 433 kts | 33° |
| 2026-04-20 23:00 | 40.71768 | 116.75638 | 21341 ft | 437 kts | 29° |
| 2026-04-20 23:00 | 40.74333 | 116.77797 | 21863 ft | 436 kts | 19° |
| 2026-04-20 23:01 | 40.77118 | 116.79352 | 22442 ft | 433 kts | 9° |
| 2026-04-20 23:01 | 40.79990 | 116.80254 | 23154 ft | 425 kts | 360° |
| 2026-04-20 23:01 | 40.82896 | 116.80577 | 23941 ft | 419 kts | 354° |
| 2026-04-20 23:01 | 40.85820 | 116.80733 | 24699 ft | 420 kts | 353° |
| 2026-04-20 23:02 | 40.88708 | 116.80878 | 25338 ft | 422 kts | 352° |
| 2026-04-20 23:02 | 40.91672 | 116.81026 | 25898 ft | 428 kts | 352° |
| 2026-04-20 23:02 | 40.94643 | 116.81175 | 26374 ft | 435 kts | 352° |
| 2026-04-20 23:02 | 40.97688 | 116.81330 | 26948 ft | 439 kts | 352° |
| 2026-04-20 23:03 | 41.00734 | 116.81490 | 27688 ft | 439 kts | 351° |
| 2026-04-20 23:03 | 41.03787 | 116.81649 | 28295 ft | 442 kts | 351° |
| 2026-04-20 23:03 | 41.06900 | 116.81809 | 28844 ft | 447 kts | 351° |
| 2026-04-20 23:03 | 41.09978 | 116.81968 | 29356 ft | 452 kts | 351° |
| 2026-04-20 23:04 | 41.13185 | 116.82135 | 29978 ft | 455 kts | 351° |
| 2026-04-20 23:04 | 41.16300 | 116.82303 | 30885 ft | 452 kts | 350° |
| 2026-04-20 23:04 | 41.19408 | 116.82471 | 31845 ft | 446 kts | 349° |
| 2026-04-20 23:04 | 41.22467 | 116.82637 | 32758 ft | 440 kts | 349° |
| 2026-04-20 23:05 | 41.25525 | 116.82798 | 33414 ft | 439 kts | 349° |
| 2026-04-20 23:05 | 41.28577 | 116.82955 | 33940 ft | 440 kts | 349° |
| 2026-04-20 23:05 | 41.31641 | 116.83118 | 34652 ft | 437 kts | 348° |
| 2026-04-20 23:05 | 41.34674 | 116.83278 | 35280 ft | 435 kts | 348° |
| 2026-04-20 23:06 | 41.37674 | 116.83436 | 35912 ft | 433 kts | 347° |
| 2026-04-20 23:06 | 41.40723 | 116.83594 | 36327 ft | 435 kts | 347° |
| 2026-04-20 23:06 | 41.43765 | 116.83752 | 36694 ft | 437 kts | 347° |
| 2026-04-20 23:06 | 41.46796 | 116.83913 | 36882 ft | 435 kts | 347° |
| 2026-04-20 23:07 | 41.49839 | 116.84073 | 37138 ft | 437 kts | 347° |
| 2026-04-20 23:07 | 41.52897 | 116.84232 | 37289 ft | 439 kts | 347° |
| 2026-04-20 23:07 | 41.55953 | 116.84397 | 36787 ft | 434 kts | 347° |
| 2026-04-20 23:07 | 41.58981 | 116.84641 | 37030 ft | 438 kts | 351° |
| 2026-04-20 23:08 | 41.62055 | 116.85376 | 37125 ft | 457 kts | 359° |
| 2026-04-20 23:08 | 41.65135 | 116.86731 | 37118 ft | 473 kts | 8° |
| 2026-04-20 23:08 | 41.68147 | 116.88753 | 37117 ft | 497 kts | 17° |
| 2026-04-20 23:08 | 41.71000 | 116.91441 | 37118 ft | 519 kts | 27° |
| 2026-04-20 23:09 | 41.73626 | 116.94858 | 37094 ft | 531 kts | 38° |
| 2026-04-20 23:09 | 41.75817 | 116.98869 | 37102 ft | 541 kts | 49° |
| 2026-04-20 23:09 | 41.77555 | 117.03453 | 37114 ft | 559 kts | 58° |
| 2026-04-20 23:09 | 41.79083 | 117.08271 | 37105 ft | 565 kts | 58° |
| 2026-04-20 23:10 | 41.82166 | 117.17888 | 37117 ft | 566 kts | 58° |
| 2026-04-20 23:10 | 41.85334 | 117.27488 | 37108 ft | 564 kts | 57° |
| 2026-04-20 23:11 | 41.88555 | 117.37095 | 37104 ft | 564 kts | 57° |
| 2026-04-20 23:11 | 41.91772 | 117.46619 | 37104 ft | 562 kts | 56° |
| 2026-04-20 23:12 | 41.95003 | 117.56148 | 37108 ft | 564 kts | 56° |
| 2026-04-20 23:12 | 41.98248 | 117.65727 | 37102 ft | 562 kts | 57° |
| 2026-04-20 23:13 | 42.01471 | 117.75248 | 37074 ft | 563 kts | 57° |
| 2026-04-20 23:13 | 42.04708 | 117.84832 | 37064 ft | 565 kts | 57° |
| 2026-04-20 23:14 | 42.07935 | 117.94421 | 37071 ft | 563 kts | 57° |
| 2026-04-20 23:14 | 42.11148 | 118.03992 | 37079 ft | 561 kts | 57° |
| 2026-04-20 23:15 | 42.14359 | 118.13580 | 37093 ft | 562 kts | 56° |
| 2026-04-20 23:15 | 42.17543 | 118.23130 | 37064 ft | 559 kts | 57° |
| 2026-04-20 23:16 | 42.20842 | 118.32578 | 37055 ft | 556 kts | 54° |
| 2026-04-20 23:16 | 42.24258 | 118.41904 | 37014 ft | 558 kts | 54° |
| 2026-04-20 23:17 | 42.27657 | 118.51251 | 37060 ft | 553 kts | 54° |
| 2026-04-20 23:17 | 42.31023 | 118.60546 | 37037 ft | 554 kts | 54° |
| 2026-04-20 23:18 | 42.34388 | 118.69887 | 37041 ft | 555 kts | 55° |
| 2026-04-20 23:18 | 42.37756 | 118.79275 | 36987 ft | 553 kts | 55° |
| 2026-04-20 23:19 | 42.41099 | 118.88628 | 36987 ft | 553 kts | 55° |
| 2026-04-20 23:19 | 42.44433 | 118.97988 | 37004 ft | 553 kts | 54° |
| 2026-04-20 23:20 | 42.47752 | 119.07336 | 36994 ft | 555 kts | 55° |
| 2026-04-20 23:20 | 42.51074 | 119.16727 | 36998 ft | 553 kts | 54° |
| 2026-04-20 23:21 | 42.54370 | 119.26080 | 37066 ft | 553 kts | 55° |
| 2026-04-20 23:21 | 42.56034 | 119.30808 | 36945 ft | 553 kts | 55° |
| 2026-04-20 23:21 | 42.57666 | 119.35462 | 36971 ft | 552 kts | 55° |
| 2026-04-20 23:22 | 42.60952 | 119.44846 | 36969 ft | 551 kts | 55° |
| 2026-04-20 23:22 | 42.64222 | 119.54222 | 36954 ft | 548 kts | 54° |
| 2026-04-20 23:23 | 42.67474 | 119.63565 | 36935 ft | 552 kts | 55° |
| 2026-04-20 23:23 | 42.69113 | 119.68291 | 37197 ft | 552 kts | 56° |
| 2026-04-20 23:23 | 42.70741 | 119.72995 | 36852 ft | 551 kts | 56° |
| 2026-04-20 23:24 | 42.72375 | 119.77722 | 37160 ft | 552 kts | 56° |
| 2026-04-20 23:24 | 42.73986 | 119.82392 | 36811 ft | 547 kts | 55° |
| 2026-04-20 23:24 | 42.75588 | 119.87044 | 36921 ft | 550 kts | 55° |
| 2026-04-20 23:24 | 42.77227 | 119.91804 | 37223 ft | 551 kts | 56° |
| 2026-04-20 23:25 | 42.78846 | 119.96516 | 36711 ft | 553 kts | 56° |
| 2026-04-20 23:25 | 42.80434 | 120.01160 | 37003 ft | 548 kts | 56° |
| 2026-04-20 23:25 | 42.83676 | 120.10634 | 36975 ft | 553 kts | 56° |
| 2026-04-20 23:26 | 42.86869 | 120.20016 | 36957 ft | 546 kts | 56° |
| 2026-04-20 23:26 | 42.90036 | 120.29343 | 36966 ft | 546 kts | 56° |
| 2026-04-20 23:27 | 42.93224 | 120.38763 | 36978 ft | 544 kts | 56° |
| 2026-04-20 23:27 | 42.96363 | 120.48074 | 36987 ft | 544 kts | 56° |
| 2026-04-20 23:28 | 42.99611 | 120.57310 | 36934 ft | 540 kts | 54° |
| 2026-04-20 23:28 | 43.02890 | 120.66451 | 36945 ft | 539 kts | 55° |
| 2026-04-20 23:29 | 43.06184 | 120.75678 | 36929 ft | 543 kts | 55° |
| 2026-04-20 23:29 | 43.09451 | 120.84888 | 36929 ft | 536 kts | 55° |
| 2026-04-20 23:30 | 43.12702 | 120.94076 | 36935 ft | 539 kts | 55° |
| 2026-04-20 23:30 | 43.15953 | 121.03309 | 36938 ft | 536 kts | 55° |
| 2026-04-20 23:31 | 43.19182 | 121.12505 | 36926 ft | 535 kts | 56° |
| 2026-04-20 23:31 | 43.22396 | 121.21690 | 36931 ft | 538 kts | 55° |
| 2026-04-20 23:32 | 43.25589 | 121.30853 | 36967 ft | 535 kts | 55° |
| 2026-04-20 23:32 | 43.28803 | 121.40100 | 36918 ft | 536 kts | 55° |
| 2026-04-20 23:33 | 43.31971 | 121.49253 | 36961 ft | 534 kts | 55° |
| 2026-04-20 23:33 | 43.35146 | 121.58450 | 36927 ft | 535 kts | 55° |
| 2026-04-20 23:34 | 43.38313 | 121.67663 | 36927 ft | 532 kts | 56° |
| 2026-04-20 23:34 | 43.41483 | 121.76903 | 36929 ft | 536 kts | 56° |
| 2026-04-20 23:35 | 43.46202 | 121.90736 | 36910 ft | 534 kts | 56° |
| 2026-04-20 23:36 | 43.49351 | 122.00001 | 36953 ft | 534 kts | 56° |
| 2026-04-20 23:36 | 43.52490 | 122.09264 | 36948 ft | 534 kts | 56° |
| 2026-04-20 23:37 | 43.55645 | 122.18486 | 36885 ft | 529 kts | 52° |
| 2026-04-20 23:37 | 43.57545 | 122.22710 | 36805 ft | 518 kts | 45° |
| 2026-04-20 23:37 | 43.59628 | 122.26715 | 36909 ft | 518 kts | 44° |
| 2026-04-20 23:38 | 43.63874 | 122.34795 | 36928 ft | 519 kts | 44° |
| 2026-04-20 23:38 | 43.68055 | 122.42798 | 36870 ft | 516 kts | 44° |
| 2026-04-20 23:39 | 43.72263 | 122.50878 | 36890 ft | 520 kts | 44° |
| 2026-04-20 23:39 | 43.76453 | 122.58964 | 36893 ft | 516 kts | 44° |
| 2026-04-20 23:40 | 43.80631 | 122.67044 | 36858 ft | 519 kts | 45° |
| 2026-04-20 23:40 | 43.84826 | 122.75186 | 36932 ft | 520 kts | 45° |
| 2026-04-20 23:41 | 43.88994 | 122.83304 | 36817 ft | 517 kts | 45° |
| 2026-04-20 23:41 | 43.93181 | 122.91473 | 36870 ft | 521 kts | 45° |
| 2026-04-20 23:42 | 43.97396 | 122.99527 | 36875 ft | 517 kts | 44° |
| 2026-04-20 23:42 | 44.01646 | 123.07529 | 36879 ft | 518 kts | 44° |
| 2026-04-20 23:43 | 44.05925 | 123.15621 | 36876 ft | 515 kts | 44° |
| 2026-04-20 23:43 | 44.10135 | 123.23608 | 36899 ft | 519 kts | 44° |
| 2026-04-20 23:44 | 44.14386 | 123.31703 | 36886 ft | 516 kts | 44° |
| 2026-04-20 23:44 | 44.18579 | 123.39711 | 36894 ft | 515 kts | 44° |
| 2026-04-20 23:45 | 44.22786 | 123.47765 | 36858 ft | 516 kts | 45° |
| 2026-04-20 23:45 | 44.26976 | 123.55816 | 36888 ft | 513 kts | 44° |
| 2026-04-20 23:46 | 44.31174 | 123.63898 | 36867 ft | 516 kts | 45° |
| 2026-04-20 23:46 | 44.35350 | 123.71966 | 36873 ft | 513 kts | 45° |
| 2026-04-20 23:47 | 44.35415 | 123.72092 | 36873 ft | 513 kts | 45° |
| 2026-04-21 00:34 | 44.37302 | 123.75739 | 36879 ft | 518 kts | 45° |
| 2026-04-21 00:35 | 44.41491 | 123.83866 | 36892 ft | 514 kts | 45° |
| 2026-04-21 00:35 | 44.45665 | 123.91983 | 36876 ft | 515 kts | 45° |
| 2026-04-21 00:36 | 44.49849 | 124.00005 | 36883 ft | 513 kts | 45° |
| 2026-04-21 00:36 | 44.54226 | 124.07896 | 36855 ft | 501 kts | 36° |
| 2026-04-21 00:36 | 44.56731 | 124.11140 | 36565 ft | 484 kts | 28° |
| 2026-04-21 00:37 | 44.59453 | 124.13799 | 35734 ft | 479 kts | 19° |
| 2026-04-21 00:37 | 44.62373 | 124.15862 | 34981 ft | 476 kts | 13° |
| 2026-04-21 00:37 | 44.65413 | 124.17747 | 34277 ft | 483 kts | 12° |
| 2026-04-21 00:37 | 44.68453 | 124.19856 | 33355 ft | 502 kts | 20° |
| 2026-04-21 00:38 | 44.71352 | 124.22659 | 32451 ft | 520 kts | 29° |
| 2026-04-21 00:38 | 44.74005 | 124.26195 | 31833 ft | 528 kts | 39° |
| 2026-04-21 00:38 | 44.76257 | 124.30247 | 31509 ft | 521 kts | 45° |
| 2026-04-21 00:38 | 44.78337 | 124.34354 | 31066 ft | 510 kts | 45° |
| 2026-04-21 00:39 | 44.80373 | 124.38377 | 30496 ft | 501 kts | 44° |
| 2026-04-21 00:39 | 44.82363 | 124.42287 | 29705 ft | 497 kts | 44° |
| 2026-04-21 00:39 | 44.84372 | 124.46214 | 28821 ft | 494 kts | 44° |
| 2026-04-21 00:39 | 44.86372 | 124.50117 | 28088 ft | 488 kts | 44° |
| 2026-04-21 00:40 | 44.88339 | 124.53950 | 27342 ft | 482 kts | 43° |
| 2026-04-21 00:40 | 44.90292 | 124.57754 | 26615 ft | 476 kts | 43° |
| 2026-04-21 00:40 | 44.92848 | 124.62729 | 25660 ft | 467 kts | 43° |
| 2026-04-21 00:40 | 44.94113 | 124.65191 | 25124 ft | 464 kts | 44° |
| 2026-04-21 00:41 | 44.95995 | 124.68851 | 24356 ft | 461 kts | 44° |
| 2026-04-21 00:41 | 44.97859 | 124.72480 | 23746 ft | 457 kts | 44° |
| 2026-04-21 00:41 | 44.99706 | 124.76080 | 23127 ft | 452 kts | 44° |
| 2026-04-21 00:41 | 45.01547 | 124.79672 | 22542 ft | 447 kts | 43° |
| 2026-04-21 00:42 | 45.03350 | 124.83192 | 21931 ft | 442 kts | 43° |
| 2026-04-21 00:42 | 45.05130 | 124.86671 | 21314 ft | 438 kts | 43° |
| 2026-04-21 00:42 | 45.06913 | 124.90158 | 20725 ft | 434 kts | 43° |
| 2026-04-21 00:42 | 45.08650 | 124.93616 | 20127 ft | 434 kts | 46° |
| 2026-04-21 00:43 | 45.10084 | 124.97428 | 19516 ft | 444 kts | 57° |
| 2026-04-21 00:43 | 45.11053 | 125.01598 | 18886 ft | 454 kts | 68° |
| 2026-04-21 00:43 | 45.11536 | 125.06055 | 18173 ft | 464 kts | 79° |
| 2026-04-21 00:43 | 45.11488 | 125.10635 | 17307 ft | 476 kts | 91° |
| 2026-04-21 00:44 | 45.10854 | 125.15255 | 16526 ft | 481 kts | 104° |
| 2026-04-21 00:44 | 45.09844 | 125.19735 | 15841 ft | 479 kts | 106° |
| 2026-04-21 00:44 | 45.08810 | 125.24211 | 15143 ft | 477 kts | 106° |
| 2026-04-21 00:45 | 45.06833 | 125.33028 | 13752 ft | 464 kts | 105° |
| 2026-04-21 00:45 | 45.05896 | 125.37292 | 13094 ft | 455 kts | 105° |
| 2026-04-21 00:45 | 45.05079 | 125.41573 | 12437 ft | 445 kts | 97° |
| 2026-04-21 00:45 | 45.04754 | 125.45835 | 11797 ft | 432 kts | 86° |
| 2026-04-21 00:46 | 45.04940 | 125.49978 | 11154 ft | 418 kts | 75° |
| 2026-04-21 00:46 | 45.05617 | 125.53896 | 10544 ft | 402 kts | 64° |
| 2026-04-21 00:46 | 45.06743 | 125.57382 | 10263 ft | 375 kts | 51° |
| 2026-04-21 00:46 | 45.08144 | 125.60277 | 10247 ft | 348 kts | 42° |
| 2026-04-21 00:47 | 45.09652 | 125.62830 | 10255 ft | 328 kts | 38° |
| 2026-04-21 00:47 | 45.11120 | 125.65205 | 10201 ft | 318 kts | 43° |
| 2026-04-21 00:47 | 45.12419 | 125.67650 | 10103 ft | 304 kts | 40° |
| 2026-04-21 00:47 | 45.13824 | 125.69790 | 9955 ft | 288 kts | 33° |
| 2026-04-21 00:48 | 45.15304 | 125.71686 | 9590 ft | 285 kts | 30° |
| 2026-04-21 00:48 | 45.16827 | 125.73483 | 9190 ft | 285 kts | 29° |
| 2026-04-21 00:48 | 45.18344 | 125.75235 | 8837 ft | 284 kts | 28° |
| 2026-04-21 00:48 | 45.19879 | 125.77000 | 8485 ft | 283 kts | 28° |
| 2026-04-21 00:49 | 45.21400 | 125.78750 | 8180 ft | 280 kts | 28° |
| 2026-04-21 00:49 | 45.22907 | 125.80483 | 7839 ft | 279 kts | 28° |
| 2026-04-21 00:49 | 45.24414 | 125.82214 | 7438 ft | 277 kts | 29° |
| 2026-04-21 00:49 | 45.25873 | 125.83898 | 7370 ft | 265 kts | 29° |
| 2026-04-21 00:50 | 45.27269 | 125.85499 | 7310 ft | 253 kts | 26° |
| 2026-04-21 00:50 | 45.28708 | 125.86896 | 7029 ft | 250 kts | 22° |
| 2026-04-21 00:50 | 45.30163 | 125.88277 | 6712 ft | 251 kts | 24° |
| 2026-04-21 00:50 | 45.31602 | 125.89678 | 6404 ft | 252 kts | 25° |
| 2026-04-21 00:51 | 45.33039 | 125.91094 | 6090 ft | 252 kts | 25° |
| 2026-04-21 00:51 | 45.34461 | 125.92500 | 5812 ft | 252 kts | 27° |
| 2026-04-21 00:51 | 45.35832 | 125.94077 | 5629 ft | 249 kts | 31° |
| 2026-04-21 00:51 | 45.37136 | 125.95637 | 5457 ft | 243 kts | 30° |
| 2026-04-21 00:52 | 45.38418 | 125.97142 | 5296 ft | 238 kts | 30° |
| 2026-04-21 00:52 | 45.39696 | 125.98625 | 5125 ft | 234 kts | 30° |
| 2026-04-21 00:52 | 45.40960 | 126.00088 | 4958 ft | 235 kts | 30° |
| 2026-04-21 00:52 | 45.42222 | 126.01552 | 4787 ft | 234 kts | 30° |
| 2026-04-21 00:53 | 45.43471 | 126.03005 | 4621 ft | 229 kts | 30° |
| 2026-04-21 00:53 | 45.44672 | 126.04433 | 4456 ft | 222 kts | 31° |
| 2026-04-21 00:53 | 45.45806 | 126.05822 | 4296 ft | 213 kts | 30° |
| 2026-04-21 00:53 | 45.46939 | 126.07159 | 4054 ft | 209 kts | 29° |
| 2026-04-21 00:54 | 45.48074 | 126.08458 | 3741 ft | 207 kts | 28° |
| 2026-04-21 00:54 | 45.49180 | 126.09721 | 3459 ft | 204 kts | 29° |
| 2026-04-21 00:54 | 45.50288 | 126.10997 | 3180 ft | 202 kts | 28° |
| 2026-04-21 00:54 | 45.51356 | 126.12234 | 3007 ft | 193 kts | 28° |
| 2026-04-21 00:55 | 45.52393 | 126.13434 | 2787 ft | 190 kts | 29° |
| 2026-04-21 00:55 | 45.53387 | 126.14590 | 2552 ft | 183 kts | 29° |
| 2026-04-21 00:55 | 45.54372 | 126.15734 | 2307 ft | 179 kts | 29° |
| 2026-04-21 00:55 | 45.55334 | 126.16854 | 2066 ft | 177 kts | 29° |
| 2026-04-21 00:56 | 45.56287 | 126.17965 | 1830 ft | 175 kts | 30° |
| 2026-04-21 00:56 | 45.57189 | 126.19018 | 1596 ft | 164 kts | 29° |
| 2026-04-21 00:56 | 45.58070 | 126.20042 | 1379 ft | 161 kts | 30° |
| 2026-04-21 00:56 | 45.58928 | 126.21043 | 1155 ft | 158 kts | 31° |
| 2026-04-21 00:57 | 45.59776 | 126.22033 | 933 ft | 157 kts | 31° |
| 2026-04-21 00:57 | 45.60628 | 126.23004 | 707 ft | 156 kts | 32° |
| 2026-04-21 00:57 | 45.61475 | 126.24005 | 524 ft | 155 kts | 34° |
| 2026-04-21 00:57 | 45.62216 | 126.24864 | 516 ft | 115 kts | 39° |
| 2026-04-21 00:58 | 45.62664 | 126.25384 | 516 ft | 44 kts | 33° |
| 2026-04-21 00:58 | 45.62893 | 126.25485 | 516 ft | 17 kts | 11° |
| 2026-04-21 00:58 | 45.62943 | 126.25428 | 516 ft | 9 kts | 252° |
| 2026-04-21 00:58 | 45.62901 | 126.25364 | 516 ft | 9 kts | 220° |
| 2026-04-21 00:59 | 45.62851 | 126.25304 | 516 ft | 9 kts | 220° |
| 2026-04-21 00:59 | 45.62804 | 126.25247 | 516 ft | 9 kts | 220° |
| 2026-04-21 00:59 | 45.62739 | 126.25169 | 516 ft | 13 kts | 219° |
| 2026-04-21 00:59 | 45.62663 | 126.25082 | 516 ft | 13 kts | 219° |
| 2026-04-21 01:00 | 45.62588 | 126.24994 | 516 ft | 13 kts | 219° |
| 2026-04-21 01:00 | 45.62518 | 126.24910 | 516 ft | 12 kts | 220° |
| 2026-04-21 01:00 | 45.62453 | 126.24831 | 516 ft | 11 kts | 220° |
| 2026-04-21 01:00 | 45.62385 | 126.24754 | 516 ft | 14 kts | 218° |
| 2026-04-21 01:01 | 45.62299 | 126.24654 | 516 ft | 17 kts | 219° |
| 2026-04-21 01:01 | 45.62191 | 126.24528 | 516 ft | 23 kts | 220° |
| 2026-04-21 01:01 | 45.62052 | 126.24365 | 516 ft | 28 kts | 220° |
| 2026-04-21 01:01 | 45.61902 | 126.24187 | 516 ft | 19 kts | 218° |
| 2026-04-21 01:02 | 45.61809 | 126.24081 | 516 ft | 14 kts | 218° |
| 2026-04-21 01:02 | 45.61737 | 126.23999 | 516 ft | 10 kts | 219° |
| 2026-04-21 01:02 | 45.61681 | 126.23932 | 516 ft | 10 kts | 220° |
| 2026-04-21 01:02 | 45.61629 | 126.23869 | 516 ft | 9 kts | 220° |
| 2026-04-21 01:03 | 45.61580 | 126.23811 | 516 ft | 8 kts | 220° |
| 2026-04-21 01:03 | 45.61536 | 126.23758 | 516 ft | 7 kts | 223° |
| 2026-04-21 01:03 | 45.61520 | 126.23694 | 516 ft | 6 kts | 290° |
| 2026-04-21 01:03 | 45.61548 | 126.23645 | 516 ft | 6 kts | 310° |
| 2026-04-21 01:04 | 45.61578 | 126.23595 | 516 ft | 6 kts | 310° |
| 2026-04-21 01:04 | 45.61606 | 126.23545 | 516 ft | 6 kts | 300° |
| 2026-04-21 01:04 | 45.61618 | 126.23486 | 516 ft | 6 kts | 275° |
| 2026-04-21 01:04 | 45.61620 | 126.23465 | 516 ft | 0 kts | 276° |